Akiachak, Alaska
Current Conditions -  °F | °C
As of 1:56 AM on Sunday 23 Nov 2014 (Local Time) from PFKW Reporting Station
Clear Clear  
Wind Chill:   Ceiling: Unl
Heat Index: 14°   Visibility: 10mi
Dew Point:   Wind: 7mph
Humidity: 80%   Direction: 40°NE
Pressure: 29.23"   Gusts: NA
Location:  60.91°N, 161.44°W
Report Text: PFKW 231056Z AUTO 04006KT 10SM CLR M10/M13 A2923 RMK AO2 SLP898 T11001128 FZRANO $
Loading
Personal Weather Stations






























Interactive Weather Map New forecast layout! Learn more

10-Day Weather Forecast

Advertisements
Track Severe Weather on mobile